<?xml version="1.0" encoding="UTF-8" standalone="no" ?>
<gpx xmlns="http://www.topografix.com/GPX/1/1" xmlns:xsi="http://www.w3.org/2001/XMLSchema-instance" xsi:schemaLocation="http://www.topografix.com/GPX/1/1 http://www.topografix.com/GPX/1/1/gpx.xsd" version="1.1" creator="VisuGPX - https://www.visugpx.com">
  <metadata>
    <name>Val de May et vallée de l'Orne au départ de May-sur-Orne</name>
  </metadata>
  <wpt lat="49.10076" lon="-0.37242">
    <ele>60</ele>
    <name><![CDATA[Parking de la Poste de May-sur-Orne]]></name>
  </wpt>
  <wpt lat="49.09132" lon="-0.3596">
    <ele>50</ele>
    <name><![CDATA[Intersection de la D41B avec la D41]]></name>
  </wpt>
  <wpt lat="49.087" lon="-0.36958">
    <ele>34</ele>
    <name><![CDATA[Bifurcation à droite]]></name>
  </wpt>
  <wpt lat="49.08617" lon="-0.37897">
    <ele>29</ele>
    <name><![CDATA[Carrefour de la D41 avec la D562A. Vers la]]></name>
  </wpt>
  <wpt lat="49.09283" lon="-0.39177">
    <ele>16</ele>
    <name><![CDATA[Hameau du Val de May. Vers l']]></name>
  </wpt>
  <wpt lat="49.10273" lon="-0.38364">
    <ele>25</ele>
    <name><![CDATA[Abandon du GR°°®°°, à droite]]></name>
  </wpt>
  <wpt lat="49.09994" lon="-0.37744">
    <ele>53</ele>
    <name><![CDATA[Rue Eugène Figeac]]></name>
  </wpt>
  <wpt lat="49.10076" lon="-0.37242">
    <ele>60</ele>
    <name><![CDATA[Parking de la Poste de May-sur-Orne]]></name>
  </wpt>
  <trk>
    <name><![CDATA[Val de May et vallée de l'Orne au départ de May-sur-Orne]]></name>
    <trkseg>
      <trkpt lat="49.10076" lon="-0.37242">
        <ele>60</ele>
        <time>2021-04-12T14:13:01+02:00</time>
      </trkpt>
      <trkpt lat="49.10067" lon="-0.37213">
        <ele>60</ele>
        <time>2021-04-12T14:14:21+02:00</time>
      </trkpt>
      <trkpt lat="49.1006" lon="-0.3719">
        <ele>60</ele>
        <time>2021-04-30T16:16:26+02:00</time>
      </trkpt>
      <trkpt lat="49.10068" lon="-0.37181">
        <ele>61</ele>
        <time>2021-04-12T14:14:44+02:00</time>
      </trkpt>
      <trkpt lat="49.10056" lon="-0.37147">
        <ele>60</ele>
        <time>2021-04-12T14:15:04+02:00</time>
      </trkpt>
      <trkpt lat="49.10043" lon="-0.37118">
        <ele>61</ele>
        <time>2021-04-12T14:15:23+02:00</time>
      </trkpt>
      <trkpt lat="49.10031" lon="-0.37092">
        <ele>62</ele>
        <time>2021-04-12T14:15:40+02:00</time>
      </trkpt>
      <trkpt lat="49.10015" lon="-0.37062">
        <ele>62</ele>
        <time>2021-04-12T14:15:58+02:00</time>
      </trkpt>
      <trkpt lat="49.10002" lon="-0.37034">
        <ele>62</ele>
        <time>2021-04-12T14:16:19+02:00</time>
      </trkpt>
      <trkpt lat="49.09987" lon="-0.37009">
        <ele>62</ele>
        <time>2021-04-12T14:16:39+02:00</time>
      </trkpt>
      <trkpt lat="49.09971" lon="-0.36982">
        <ele>63</ele>
        <time>2021-04-12T14:16:57+02:00</time>
      </trkpt>
      <trkpt lat="49.09955" lon="-0.36959">
        <ele>61</ele>
        <time>2021-04-12T14:17:17+02:00</time>
      </trkpt>
      <trkpt lat="49.09937" lon="-0.36936">
        <ele>64</ele>
        <time>2021-04-12T14:17:35+02:00</time>
      </trkpt>
      <trkpt lat="49.09919" lon="-0.36913">
        <ele>64</ele>
        <time>2021-04-12T14:17:55+02:00</time>
      </trkpt>
      <trkpt lat="49.09901" lon="-0.36892">
        <ele>64</ele>
        <time>2021-04-12T14:18:12+02:00</time>
      </trkpt>
      <trkpt lat="49.09883" lon="-0.3687">
        <ele>63</ele>
        <time>2021-04-12T14:18:33+02:00</time>
      </trkpt>
      <trkpt lat="49.09863" lon="-0.36847">
        <ele>65</ele>
        <time>2021-04-12T14:18:51+02:00</time>
      </trkpt>
      <trkpt lat="49.09846" lon="-0.36827">
        <ele>65</ele>
        <time>2021-04-12T14:19:09+02:00</time>
      </trkpt>
      <trkpt lat="49.09828" lon="-0.36807">
        <ele>66</ele>
        <time>2021-04-12T14:19:27+02:00</time>
      </trkpt>
      <trkpt lat="49.09809" lon="-0.36785">
        <ele>65</ele>
        <time>2021-04-12T14:19:46+02:00</time>
      </trkpt>
      <trkpt lat="49.09794" lon="-0.36767">
        <ele>67</ele>
        <time>2021-04-12T14:20:07+02:00</time>
      </trkpt>
      <trkpt lat="49.09773" lon="-0.36744">
        <ele>66</ele>
        <time>2021-04-12T14:20:28+02:00</time>
      </trkpt>
      <trkpt lat="49.09762" lon="-0.36731">
        <ele>67</ele>
        <time>2021-04-30T16:18:06+02:00</time>
      </trkpt>
      <trkpt lat="49.0977" lon="-0.36716">
        <ele>67</ele>
        <time>2021-04-12T14:20:53+02:00</time>
      </trkpt>
      <trkpt lat="49.09746" lon="-0.36685">
        <ele>67</ele>
        <time>2021-04-12T14:21:11+02:00</time>
      </trkpt>
      <trkpt lat="49.09731" lon="-0.36662">
        <ele>67</ele>
        <time>2021-04-12T14:21:31+02:00</time>
      </trkpt>
      <trkpt lat="49.09714" lon="-0.36639">
        <ele>67</ele>
        <time>2021-04-12T14:21:50+02:00</time>
      </trkpt>
      <trkpt lat="49.09696" lon="-0.36613">
        <ele>67</ele>
        <time>2021-04-12T14:22:09+02:00</time>
      </trkpt>
      <trkpt lat="49.09679" lon="-0.36588">
        <ele>68</ele>
        <time>2021-04-12T14:22:28+02:00</time>
      </trkpt>
      <trkpt lat="49.09663" lon="-0.36566">
        <ele>68</ele>
        <time>2021-04-12T14:22:48+02:00</time>
      </trkpt>
      <trkpt lat="49.09644" lon="-0.36543">
        <ele>68</ele>
        <time>2021-04-12T14:25:27+02:00</time>
      </trkpt>
      <trkpt lat="49.09626" lon="-0.36523">
        <ele>67</ele>
        <time>2021-04-12T14:25:47+02:00</time>
      </trkpt>
      <trkpt lat="49.09607" lon="-0.36504">
        <ele>67</ele>
        <time>2021-04-12T14:26:06+02:00</time>
      </trkpt>
      <trkpt lat="49.09589" lon="-0.36484">
        <ele>67</ele>
        <time>2021-04-12T14:26:24+02:00</time>
      </trkpt>
      <trkpt lat="49.0957" lon="-0.36463">
        <ele>66</ele>
        <time>2021-04-12T14:26:41+02:00</time>
      </trkpt>
      <trkpt lat="49.09551" lon="-0.36441">
        <ele>67</ele>
        <time>2021-04-12T14:26:57+02:00</time>
      </trkpt>
      <trkpt lat="49.09532" lon="-0.36421">
        <ele>66</ele>
        <time>2021-04-12T14:27:15+02:00</time>
      </trkpt>
      <trkpt lat="49.09515" lon="-0.36402">
        <ele>65</ele>
        <time>2021-04-12T14:27:31+02:00</time>
      </trkpt>
      <trkpt lat="49.09495" lon="-0.36382">
        <ele>65</ele>
        <time>2021-04-12T14:27:47+02:00</time>
      </trkpt>
      <trkpt lat="49.09477" lon="-0.36361">
        <ele>65</ele>
        <time>2021-04-12T14:28:07+02:00</time>
      </trkpt>
      <trkpt lat="49.09458" lon="-0.36339">
        <ele>64</ele>
        <time>2021-04-12T14:28:23+02:00</time>
      </trkpt>
      <trkpt lat="49.09441" lon="-0.36317">
        <ele>64</ele>
        <time>2021-04-12T14:28:38+02:00</time>
      </trkpt>
      <trkpt lat="49.09424" lon="-0.36294">
        <ele>66</ele>
        <time>2021-04-12T14:28:54+02:00</time>
      </trkpt>
      <trkpt lat="49.09406" lon="-0.3627">
        <ele>65</ele>
        <time>2021-04-12T14:29:11+02:00</time>
      </trkpt>
      <trkpt lat="49.09388" lon="-0.36246">
        <ele>65</ele>
        <time>2021-04-12T14:29:29+02:00</time>
      </trkpt>
      <trkpt lat="49.09372" lon="-0.3622">
        <ele>61</ele>
        <time>2021-04-12T14:29:47+02:00</time>
      </trkpt>
      <trkpt lat="49.09357" lon="-0.36194">
        <ele>64</ele>
        <time>2021-04-12T14:30:05+02:00</time>
      </trkpt>
      <trkpt lat="49.09342" lon="-0.36167">
        <ele>63</ele>
        <time>2021-04-12T14:30:22+02:00</time>
      </trkpt>
      <trkpt lat="49.09328" lon="-0.36138">
        <ele>60</ele>
        <time>2021-04-12T14:30:39+02:00</time>
      </trkpt>
      <trkpt lat="49.09316" lon="-0.3611">
        <ele>62</ele>
        <time>2021-04-12T14:30:59+02:00</time>
      </trkpt>
      <trkpt lat="49.09308" lon="-0.36094">
        <ele>58</ele>
        <time>2021-04-30T16:20:26+02:00</time>
      </trkpt>
      <trkpt lat="49.09298" lon="-0.36085">
        <ele>61</ele>
        <time>2021-04-12T14:31:17+02:00</time>
      </trkpt>
      <trkpt lat="49.09287" lon="-0.36076">
        <ele>57</ele>
        <time>2021-04-30T16:20:36+02:00</time>
      </trkpt>
      <trkpt lat="49.09277" lon="-0.36071">
        <ele>57</ele>
        <time>2021-04-12T14:31:35+02:00</time>
      </trkpt>
      <trkpt lat="49.09255" lon="-0.3606">
        <ele>59</ele>
        <time>2021-04-12T14:31:53+02:00</time>
      </trkpt>
      <trkpt lat="49.09234" lon="-0.36047">
        <ele>58</ele>
        <time>2021-04-12T14:32:11+02:00</time>
      </trkpt>
      <trkpt lat="49.09213" lon="-0.36035">
        <ele>57</ele>
        <time>2021-04-12T14:32:29+02:00</time>
      </trkpt>
      <trkpt lat="49.09202" lon="-0.36028">
        <ele>54</ele>
        <time>2021-04-30T16:21:01+02:00</time>
      </trkpt>
      <trkpt lat="49.09192" lon="-0.36021">
        <ele>53</ele>
        <time>2021-04-12T14:32:49+02:00</time>
      </trkpt>
      <trkpt lat="49.09174" lon="-0.36002">
        <ele>53</ele>
        <time>2021-04-12T14:33:07+02:00</time>
      </trkpt>
      <trkpt lat="49.09155" lon="-0.35981">
        <ele>51</ele>
        <time>2021-04-12T14:33:26+02:00</time>
      </trkpt>
      <trkpt lat="49.09143" lon="-0.3597">
        <ele>51</ele>
        <time>2021-04-30T16:21:21+02:00</time>
      </trkpt>
      <trkpt lat="49.09132" lon="-0.3596">
        <ele>50</ele>
        <time>2021-04-30T16:21:26+02:00</time>
      </trkpt>
      <trkpt lat="49.0913" lon="-0.35978">
        <ele>50</ele>
        <time>2021-04-12T14:33:56+02:00</time>
      </trkpt>
      <trkpt lat="49.09126" lon="-0.3599">
        <ele>50</ele>
        <time>2021-04-30T16:21:36+02:00</time>
      </trkpt>
      <trkpt lat="49.09128" lon="-0.36008">
        <ele>50</ele>
        <time>2021-04-12T14:34:15+02:00</time>
      </trkpt>
      <trkpt lat="49.0912" lon="-0.36045">
        <ele>50</ele>
        <time>2021-04-12T14:34:32+02:00</time>
      </trkpt>
      <trkpt lat="49.09111" lon="-0.36077">
        <ele>50</ele>
        <time>2021-04-12T14:34:53+02:00</time>
      </trkpt>
      <trkpt lat="49.09094" lon="-0.36105">
        <ele>50</ele>
        <time>2021-04-12T14:35:15+02:00</time>
      </trkpt>
      <trkpt lat="49.09079" lon="-0.36129">
        <ele>50</ele>
        <time>2021-04-12T14:35:39+02:00</time>
      </trkpt>
      <trkpt lat="49.09071" lon="-0.36141">
        <ele>50</ele>
        <time>2021-04-30T16:22:06+02:00</time>
      </trkpt>
      <trkpt lat="49.09066" lon="-0.36152">
        <ele>50</ele>
        <time>2021-04-12T14:35:58+02:00</time>
      </trkpt>
      <trkpt lat="49.09062" lon="-0.36167">
        <ele>50</ele>
        <time>2021-04-30T16:22:16+02:00</time>
      </trkpt>
      <trkpt lat="49.09059" lon="-0.36188">
        <ele>50</ele>
        <time>2021-04-12T14:36:20+02:00</time>
      </trkpt>
      <trkpt lat="49.09055" lon="-0.36203">
        <ele>49</ele>
        <time>2021-04-30T16:22:26+02:00</time>
      </trkpt>
      <trkpt lat="49.09052" lon="-0.3622">
        <ele>49</ele>
        <time>2021-04-12T14:36:39+02:00</time>
      </trkpt>
      <trkpt lat="49.09044" lon="-0.36251">
        <ele>48</ele>
        <time>2021-04-12T14:37:02+02:00</time>
      </trkpt>
      <trkpt lat="49.09035" lon="-0.36267">
        <ele>48</ele>
        <time>2021-04-30T16:22:41+02:00</time>
      </trkpt>
      <trkpt lat="49.09028" lon="-0.36281">
        <ele>48</ele>
        <time>2021-04-12T14:37:21+02:00</time>
      </trkpt>
      <trkpt lat="49.09014" lon="-0.36313">
        <ele>48</ele>
        <time>2021-04-12T14:37:39+02:00</time>
      </trkpt>
      <trkpt lat="49.09009" lon="-0.36327">
        <ele>48</ele>
        <time>2021-04-30T16:22:56+02:00</time>
      </trkpt>
      <trkpt lat="49.09007" lon="-0.36346">
        <ele>48</ele>
        <time>2021-04-12T14:37:56+02:00</time>
      </trkpt>
      <trkpt lat="49.09004" lon="-0.36378">
        <ele>49</ele>
        <time>2021-04-12T14:38:14+02:00</time>
      </trkpt>
      <trkpt lat="49.08999" lon="-0.36413">
        <ele>49</ele>
        <time>2021-04-12T14:38:34+02:00</time>
      </trkpt>
      <trkpt lat="49.08994" lon="-0.36447">
        <ele>55</ele>
        <time>2021-04-12T14:38:54+02:00</time>
      </trkpt>
      <trkpt lat="49.08991" lon="-0.36464">
        <ele>48</ele>
        <time>2021-04-30T16:23:21+02:00</time>
      </trkpt>
      <trkpt lat="49.08986" lon="-0.36479">
        <ele>48</ele>
        <time>2021-04-12T14:39:14+02:00</time>
      </trkpt>
      <trkpt lat="49.08973" lon="-0.36507">
        <ele>47</ele>
        <time>2021-04-12T14:39:33+02:00</time>
      </trkpt>
      <trkpt lat="49.08961" lon="-0.36536">
        <ele>48</ele>
        <time>2021-04-12T14:39:53+02:00</time>
      </trkpt>
      <trkpt lat="49.08945" lon="-0.36563">
        <ele>48</ele>
        <time>2021-04-12T14:40:16+02:00</time>
      </trkpt>
      <trkpt lat="49.0893" lon="-0.36594">
        <ele>54</ele>
        <time>2021-04-12T14:40:33+02:00</time>
      </trkpt>
      <trkpt lat="49.08927" lon="-0.36606">
        <ele>47</ele>
        <time>2021-04-30T16:23:51+02:00</time>
      </trkpt>
      <trkpt lat="49.08928" lon="-0.36629">
        <ele>55</ele>
        <time>2021-04-12T14:40:50+02:00</time>
      </trkpt>
      <trkpt lat="49.08933" lon="-0.36662">
        <ele>46</ele>
        <time>2021-04-12T14:41:08+02:00</time>
      </trkpt>
      <trkpt lat="49.08936" lon="-0.36696">
        <ele>46</ele>
        <time>2021-04-12T14:41:27+02:00</time>
      </trkpt>
      <trkpt lat="49.08941" lon="-0.36731">
        <ele>56</ele>
        <time>2021-04-12T14:42:08+02:00</time>
      </trkpt>
      <trkpt lat="49.08942" lon="-0.36764">
        <ele>48</ele>
        <time>2021-04-12T14:42:29+02:00</time>
      </trkpt>
      <trkpt lat="49.08943" lon="-0.36797">
        <ele>58</ele>
        <time>2021-04-12T14:42:49+02:00</time>
      </trkpt>
      <trkpt lat="49.08933" lon="-0.36828">
        <ele>58</ele>
        <time>2021-04-12T14:43:09+02:00</time>
      </trkpt>
      <trkpt lat="49.08924" lon="-0.3686">
        <ele>51</ele>
        <time>2021-04-12T14:43:29+02:00</time>
      </trkpt>
      <trkpt lat="49.08915" lon="-0.36891">
        <ele>52</ele>
        <time>2021-04-12T14:43:51+02:00</time>
      </trkpt>
      <trkpt lat="49.08905" lon="-0.36927">
        <ele>53</ele>
        <time>2021-04-12T14:44:10+02:00</time>
      </trkpt>
      <trkpt lat="49.08895" lon="-0.36955">
        <ele>52</ele>
        <time>2021-04-12T14:44:29+02:00</time>
      </trkpt>
      <trkpt lat="49.08888" lon="-0.36988">
        <ele>53</ele>
        <time>2021-04-12T14:44:48+02:00</time>
      </trkpt>
      <trkpt lat="49.0888" lon="-0.37021">
        <ele>53</ele>
        <time>2021-04-12T14:45:08+02:00</time>
      </trkpt>
      <trkpt lat="49.08875" lon="-0.37058">
        <ele>54</ele>
        <time>2021-04-12T14:45:28+02:00</time>
      </trkpt>
      <trkpt lat="49.08873" lon="-0.3709">
        <ele>59</ele>
        <time>2021-04-12T14:45:49+02:00</time>
      </trkpt>
      <trkpt lat="49.08873" lon="-0.37118">
        <ele>56</ele>
        <time>2021-04-30T16:25:11+02:00</time>
      </trkpt>
      <trkpt lat="49.08863" lon="-0.37121">
        <ele>60</ele>
        <time>2021-04-12T14:46:24+02:00</time>
      </trkpt>
      <trkpt lat="49.0884" lon="-0.37117">
        <ele>57</ele>
        <time>2021-04-12T14:46:50+02:00</time>
      </trkpt>
      <trkpt lat="49.08817" lon="-0.37107">
        <ele>54</ele>
        <time>2021-04-12T14:47:22+02:00</time>
      </trkpt>
      <trkpt lat="49.08798" lon="-0.3709">
        <ele>48</ele>
        <time>2021-04-12T14:47:47+02:00</time>
      </trkpt>
      <trkpt lat="49.08778" lon="-0.37072">
        <ele>45</ele>
        <time>2021-04-12T14:48:11+02:00</time>
      </trkpt>
      <trkpt lat="49.08759" lon="-0.37052">
        <ele>44</ele>
        <time>2021-04-12T14:48:34+02:00</time>
      </trkpt>
      <trkpt lat="49.08741" lon="-0.37031">
        <ele>41</ele>
        <time>2021-04-12T14:48:58+02:00</time>
      </trkpt>
      <trkpt lat="49.08732" lon="-0.37024">
        <ele>37</ele>
        <time>2021-04-30T16:25:51+02:00</time>
      </trkpt>
      <trkpt lat="49.08727" lon="-0.37008">
        <ele>36</ele>
        <time>2021-04-12T14:49:24+02:00</time>
      </trkpt>
      <trkpt lat="49.0871" lon="-0.36981">
        <ele>34</ele>
        <time>2021-04-12T14:49:42+02:00</time>
      </trkpt>
      <trkpt lat="49.087" lon="-0.36958">
        <ele>34</ele>
        <time>2021-04-30T16:26:06+02:00</time>
      </trkpt>
      <trkpt lat="49.0869" lon="-0.36997">
        <ele>34</ele>
        <time>2021-04-12T14:50:17+02:00</time>
      </trkpt>
      <trkpt lat="49.08681" lon="-0.37029">
        <ele>34</ele>
        <time>2021-04-12T14:50:43+02:00</time>
      </trkpt>
      <trkpt lat="49.08674" lon="-0.37065">
        <ele>38</ele>
        <time>2021-04-12T14:51:06+02:00</time>
      </trkpt>
      <trkpt lat="49.08666" lon="-0.37098">
        <ele>40</ele>
        <time>2021-04-12T14:51:30+02:00</time>
      </trkpt>
      <trkpt lat="49.0866" lon="-0.37132">
        <ele>42</ele>
        <time>2021-04-12T14:51:56+02:00</time>
      </trkpt>
      <trkpt lat="49.08657" lon="-0.37167">
        <ele>34</ele>
        <time>2021-04-12T14:52:19+02:00</time>
      </trkpt>
      <trkpt lat="49.08658" lon="-0.37201">
        <ele>43</ele>
        <time>2021-04-12T14:52:37+02:00</time>
      </trkpt>
      <trkpt lat="49.08663" lon="-0.37236">
        <ele>44</ele>
        <time>2021-04-12T14:53:01+02:00</time>
      </trkpt>
      <trkpt lat="49.08667" lon="-0.3727">
        <ele>45</ele>
        <time>2021-04-12T14:53:22+02:00</time>
      </trkpt>
      <trkpt lat="49.08675" lon="-0.37304">
        <ele>47</ele>
        <time>2021-04-12T14:53:47+02:00</time>
      </trkpt>
      <trkpt lat="49.08683" lon="-0.37337">
        <ele>48</ele>
        <time>2021-04-12T14:54:06+02:00</time>
      </trkpt>
      <trkpt lat="49.08692" lon="-0.37369">
        <ele>50</ele>
        <time>2021-04-12T14:54:26+02:00</time>
      </trkpt>
      <trkpt lat="49.08698" lon="-0.37403">
        <ele>50</ele>
        <time>2021-04-12T14:54:50+02:00</time>
      </trkpt>
      <trkpt lat="49.087" lon="-0.37435">
        <ele>46</ele>
        <time>2021-04-12T14:55:12+02:00</time>
      </trkpt>
      <trkpt lat="49.08702" lon="-0.37454">
        <ele>47</ele>
        <time>2021-04-30T16:27:21+02:00</time>
      </trkpt>
      <trkpt lat="49.08683" lon="-0.37461">
        <ele>45</ele>
        <time>2021-04-12T14:56:06+02:00</time>
      </trkpt>
      <trkpt lat="49.08661" lon="-0.37472">
        <ele>43</ele>
        <time>2021-04-12T14:56:26+02:00</time>
      </trkpt>
      <trkpt lat="49.08644" lon="-0.37502">
        <ele>40</ele>
        <time>2021-04-12T14:56:48+02:00</time>
      </trkpt>
      <trkpt lat="49.08632" lon="-0.37533">
        <ele>38</ele>
        <time>2021-04-12T14:57:04+02:00</time>
      </trkpt>
      <trkpt lat="49.08622" lon="-0.37565">
        <ele>35</ele>
        <time>2021-04-12T14:57:25+02:00</time>
      </trkpt>
      <trkpt lat="49.08614" lon="-0.37591">
        <ele>34</ele>
        <time>2021-04-12T14:57:45+02:00</time>
      </trkpt>
      <trkpt lat="49.08602" lon="-0.37631">
        <ele>31</ele>
        <time>2021-04-12T14:58:06+02:00</time>
      </trkpt>
      <trkpt lat="49.08595" lon="-0.37663">
        <ele>30</ele>
        <time>2021-04-12T14:58:27+02:00</time>
      </trkpt>
      <trkpt lat="49.08591" lon="-0.37697">
        <ele>29</ele>
        <time>2021-04-12T14:58:46+02:00</time>
      </trkpt>
      <trkpt lat="49.0859" lon="-0.37733">
        <ele>28</ele>
        <time>2021-04-12T14:59:03+02:00</time>
      </trkpt>
      <trkpt lat="49.08595" lon="-0.37771">
        <ele>28</ele>
        <time>2021-04-12T14:59:21+02:00</time>
      </trkpt>
      <trkpt lat="49.08598" lon="-0.37806">
        <ele>28</ele>
        <time>2021-04-12T14:59:40+02:00</time>
      </trkpt>
      <trkpt lat="49.08603" lon="-0.37839">
        <ele>25</ele>
        <time>2021-04-12T15:00:03+02:00</time>
      </trkpt>
      <trkpt lat="49.08604" lon="-0.37871">
        <ele>27</ele>
        <time>2021-04-12T15:00:27+02:00</time>
      </trkpt>
      <trkpt lat="49.08602" lon="-0.37891">
        <ele>26</ele>
        <time>2021-04-30T16:28:36+02:00</time>
      </trkpt>
      <trkpt lat="49.08617" lon="-0.37897">
        <ele>29</ele>
        <time>2021-04-12T15:00:50+02:00</time>
      </trkpt>
      <trkpt lat="49.08627" lon="-0.37928">
        <ele>30</ele>
        <time>2021-04-12T15:01:50+02:00</time>
      </trkpt>
      <trkpt lat="49.08633" lon="-0.37964">
        <ele>31</ele>
        <time>2021-04-12T15:02:11+02:00</time>
      </trkpt>
      <trkpt lat="49.08633" lon="-0.37998">
        <ele>19</ele>
        <time>2021-04-12T15:02:30+02:00</time>
      </trkpt>
      <trkpt lat="49.08632" lon="-0.38013">
        <ele>30</ele>
        <time>2021-04-30T16:29:01+02:00</time>
      </trkpt>
      <trkpt lat="49.08631" lon="-0.38032">
        <ele>30</ele>
        <time>2021-04-12T15:07:43+02:00</time>
      </trkpt>
      <trkpt lat="49.08625" lon="-0.38062">
        <ele>18</ele>
        <time>2021-04-12T15:08:44+02:00</time>
      </trkpt>
      <trkpt lat="49.0862" lon="-0.38096">
        <ele>18</ele>
        <time>2021-04-12T15:08:58+02:00</time>
      </trkpt>
      <trkpt lat="49.08614" lon="-0.38129">
        <ele>17</ele>
        <time>2021-04-12T15:09:17+02:00</time>
      </trkpt>
      <trkpt lat="49.08609" lon="-0.38162">
        <ele>24</ele>
        <time>2021-04-12T15:09:37+02:00</time>
      </trkpt>
      <trkpt lat="49.08601" lon="-0.38194">
        <ele>24</ele>
        <time>2021-04-12T15:09:56+02:00</time>
      </trkpt>
      <trkpt lat="49.08593" lon="-0.38228">
        <ele>25</ele>
        <time>2021-04-12T15:10:16+02:00</time>
      </trkpt>
      <trkpt lat="49.08585" lon="-0.38261">
        <ele>24</ele>
        <time>2021-04-12T15:10:46+02:00</time>
      </trkpt>
      <trkpt lat="49.08577" lon="-0.38295">
        <ele>22</ele>
        <time>2021-04-12T15:11:06+02:00</time>
      </trkpt>
      <trkpt lat="49.08572" lon="-0.38327">
        <ele>17</ele>
        <time>2021-04-12T15:11:24+02:00</time>
      </trkpt>
      <trkpt lat="49.08571" lon="-0.38362">
        <ele>20</ele>
        <time>2021-04-12T15:11:41+02:00</time>
      </trkpt>
      <trkpt lat="49.08573" lon="-0.38396">
        <ele>19</ele>
        <time>2021-04-12T15:11:58+02:00</time>
      </trkpt>
      <trkpt lat="49.08583" lon="-0.38423">
        <ele>18</ele>
        <time>2021-04-12T15:12:16+02:00</time>
      </trkpt>
      <trkpt lat="49.08595" lon="-0.38448">
        <ele>19</ele>
        <time>2021-04-12T15:12:33+02:00</time>
      </trkpt>
      <trkpt lat="49.0861" lon="-0.38471">
        <ele>20</ele>
        <time>2021-04-12T15:12:50+02:00</time>
      </trkpt>
      <trkpt lat="49.08629" lon="-0.38493">
        <ele>20</ele>
        <time>2021-04-12T15:13:09+02:00</time>
      </trkpt>
      <trkpt lat="49.08646" lon="-0.38513">
        <ele>20</ele>
        <time>2021-04-12T15:13:26+02:00</time>
      </trkpt>
      <trkpt lat="49.08668" lon="-0.38535">
        <ele>19</ele>
        <time>2021-04-12T15:13:43+02:00</time>
      </trkpt>
      <trkpt lat="49.08685" lon="-0.38552">
        <ele>20</ele>
        <time>2021-04-12T15:14:01+02:00</time>
      </trkpt>
      <trkpt lat="49.08702" lon="-0.38574">
        <ele>21</ele>
        <time>2021-04-12T15:14:20+02:00</time>
      </trkpt>
      <trkpt lat="49.08722" lon="-0.38598">
        <ele>22</ele>
        <time>2021-04-12T15:14:40+02:00</time>
      </trkpt>
      <trkpt lat="49.08735" lon="-0.3863">
        <ele>12</ele>
        <time>2021-04-12T15:15:01+02:00</time>
      </trkpt>
      <trkpt lat="49.08749" lon="-0.38657">
        <ele>13</ele>
        <time>2021-04-12T15:15:42+02:00</time>
      </trkpt>
      <trkpt lat="49.08764" lon="-0.38682">
        <ele>23</ele>
        <time>2021-04-12T15:16:08+02:00</time>
      </trkpt>
      <trkpt lat="49.08779" lon="-0.38709">
        <ele>12</ele>
        <time>2021-04-12T15:16:20+02:00</time>
      </trkpt>
      <trkpt lat="49.0879" lon="-0.38731">
        <ele>25</ele>
        <time>2021-04-12T15:16:52+02:00</time>
      </trkpt>
      <trkpt lat="49.08803" lon="-0.3876">
        <ele>26</ele>
        <time>2021-04-12T15:17:10+02:00</time>
      </trkpt>
      <trkpt lat="49.0881" lon="-0.38796">
        <ele>11</ele>
        <time>2021-04-12T15:17:33+02:00</time>
      </trkpt>
      <trkpt lat="49.08815" lon="-0.38831">
        <ele>11</ele>
        <time>2021-04-12T15:17:52+02:00</time>
      </trkpt>
      <trkpt lat="49.08814" lon="-0.38866">
        <ele>25</ele>
        <time>2021-04-12T15:18:09+02:00</time>
      </trkpt>
      <trkpt lat="49.08812" lon="-0.38902">
        <ele>24</ele>
        <time>2021-04-12T15:18:31+02:00</time>
      </trkpt>
      <trkpt lat="49.08813" lon="-0.3893">
        <ele>23</ele>
        <time>2021-04-12T15:18:45+02:00</time>
      </trkpt>
      <trkpt lat="49.08814" lon="-0.38967">
        <ele>12</ele>
        <time>2021-04-12T15:19:05+02:00</time>
      </trkpt>
      <trkpt lat="49.08823" lon="-0.38999">
        <ele>12</ele>
        <time>2021-04-12T15:19:23+02:00</time>
      </trkpt>
      <trkpt lat="49.08832" lon="-0.39032">
        <ele>13</ele>
        <time>2021-04-12T15:19:44+02:00</time>
      </trkpt>
      <trkpt lat="49.08843" lon="-0.39064">
        <ele>14</ele>
        <time>2021-04-12T15:20:08+02:00</time>
      </trkpt>
      <trkpt lat="49.08856" lon="-0.39093">
        <ele>12</ele>
        <time>2021-04-12T15:20:39+02:00</time>
      </trkpt>
      <trkpt lat="49.0887" lon="-0.39118">
        <ele>21</ele>
        <time>2021-04-12T15:21:01+02:00</time>
      </trkpt>
      <trkpt lat="49.08888" lon="-0.39139">
        <ele>22</ele>
        <time>2021-04-12T15:21:21+02:00</time>
      </trkpt>
      <trkpt lat="49.08906" lon="-0.39159">
        <ele>22</ele>
        <time>2021-04-12T15:21:42+02:00</time>
      </trkpt>
      <trkpt lat="49.08926" lon="-0.39178">
        <ele>22</ele>
        <time>2021-04-12T15:22:06+02:00</time>
      </trkpt>
      <trkpt lat="49.08946" lon="-0.39199">
        <ele>22</ele>
        <time>2021-04-12T15:22:25+02:00</time>
      </trkpt>
      <trkpt lat="49.08963" lon="-0.39224">
        <ele>21</ele>
        <time>2021-04-12T15:22:45+02:00</time>
      </trkpt>
      <trkpt lat="49.0898" lon="-0.39244">
        <ele>19</ele>
        <time>2021-04-12T15:23:06+02:00</time>
      </trkpt>
      <trkpt lat="49.09" lon="-0.39259">
        <ele>19</ele>
        <time>2021-04-12T15:23:22+02:00</time>
      </trkpt>
      <trkpt lat="49.09026" lon="-0.39263">
        <ele>20</ele>
        <time>2021-04-12T15:23:47+02:00</time>
      </trkpt>
      <trkpt lat="49.09048" lon="-0.39259">
        <ele>21</ele>
        <time>2021-04-12T15:24:06+02:00</time>
      </trkpt>
      <trkpt lat="49.09071" lon="-0.39259">
        <ele>22</ele>
        <time>2021-04-12T15:24:50+02:00</time>
      </trkpt>
      <trkpt lat="49.09093" lon="-0.39269">
        <ele>21</ele>
        <time>2021-04-12T15:25:07+02:00</time>
      </trkpt>
      <trkpt lat="49.09114" lon="-0.39266">
        <ele>21</ele>
        <time>2021-04-12T15:25:30+02:00</time>
      </trkpt>
      <trkpt lat="49.09137" lon="-0.39261">
        <ele>21</ele>
        <time>2021-04-12T15:25:56+02:00</time>
      </trkpt>
      <trkpt lat="49.09161" lon="-0.39256">
        <ele>21</ele>
        <time>2021-04-12T15:26:17+02:00</time>
      </trkpt>
      <trkpt lat="49.0918" lon="-0.39244">
        <ele>21</ele>
        <time>2021-04-12T15:26:35+02:00</time>
      </trkpt>
      <trkpt lat="49.09202" lon="-0.3923">
        <ele>8</ele>
        <time>2021-04-12T15:26:53+02:00</time>
      </trkpt>
      <trkpt lat="49.09223" lon="-0.39215">
        <ele>8</ele>
        <time>2021-04-12T15:27:20+02:00</time>
      </trkpt>
      <trkpt lat="49.09244" lon="-0.39199">
        <ele>17</ele>
        <time>2021-04-12T15:27:42+02:00</time>
      </trkpt>
      <trkpt lat="49.09264" lon="-0.39183">
        <ele>8</ele>
        <time>2021-04-12T15:28:01+02:00</time>
      </trkpt>
      <trkpt lat="49.09283" lon="-0.39177">
        <ele>16</ele>
        <time>2021-04-12T15:28:20+02:00</time>
      </trkpt>
      <trkpt lat="49.09289" lon="-0.39172">
        <ele>15</ele>
        <time>2021-04-30T16:33:56+02:00</time>
      </trkpt>
      <trkpt lat="49.09302" lon="-0.39143">
        <ele>17</ele>
        <time>2021-04-12T15:28:42+02:00</time>
      </trkpt>
      <trkpt lat="49.09316" lon="-0.39116">
        <ele>19</ele>
        <time>2021-04-12T15:29:05+02:00</time>
      </trkpt>
      <trkpt lat="49.09325" lon="-0.39101">
        <ele>19</ele>
        <time>2021-04-30T16:34:11+02:00</time>
      </trkpt>
      <trkpt lat="49.09337" lon="-0.39098">
        <ele>19</ele>
        <time>2021-04-12T15:29:30+02:00</time>
      </trkpt>
      <trkpt lat="49.09348" lon="-0.39095">
        <ele>19</ele>
        <time>2021-04-30T16:34:21+02:00</time>
      </trkpt>
      <trkpt lat="49.0936" lon="-0.39107">
        <ele>17</ele>
        <time>2021-04-12T15:29:57+02:00</time>
      </trkpt>
      <trkpt lat="49.09382" lon="-0.39117">
        <ele>14</ele>
        <time>2021-04-12T15:30:31+02:00</time>
      </trkpt>
      <trkpt lat="49.09405" lon="-0.39116">
        <ele>14</ele>
        <time>2021-04-12T15:30:59+02:00</time>
      </trkpt>
      <trkpt lat="49.09429" lon="-0.39113">
        <ele>19</ele>
        <time>2021-04-12T15:31:26+02:00</time>
      </trkpt>
      <trkpt lat="49.09454" lon="-0.39117">
        <ele>19</ele>
        <time>2021-04-12T15:31:55+02:00</time>
      </trkpt>
      <trkpt lat="49.09475" lon="-0.39131">
        <ele>18</ele>
        <time>2021-04-12T15:32:19+02:00</time>
      </trkpt>
      <trkpt lat="49.09498" lon="-0.39141">
        <ele>17</ele>
        <time>2021-04-12T15:32:36+02:00</time>
      </trkpt>
      <trkpt lat="49.09519" lon="-0.39153">
        <ele>12</ele>
        <time>2021-04-12T15:32:56+02:00</time>
      </trkpt>
      <trkpt lat="49.09541" lon="-0.39162">
        <ele>12</ele>
        <time>2021-04-12T15:33:16+02:00</time>
      </trkpt>
      <trkpt lat="49.09563" lon="-0.39173">
        <ele>12</ele>
        <time>2021-04-12T15:33:38+02:00</time>
      </trkpt>
      <trkpt lat="49.09586" lon="-0.39177">
        <ele>15</ele>
        <time>2021-04-12T15:33:58+02:00</time>
      </trkpt>
      <trkpt lat="49.09612" lon="-0.39171">
        <ele>15</ele>
        <time>2021-04-12T15:34:20+02:00</time>
      </trkpt>
      <trkpt lat="49.09633" lon="-0.3917">
        <ele>14</ele>
        <time>2021-04-12T15:34:44+02:00</time>
      </trkpt>
      <trkpt lat="49.09657" lon="-0.39164">
        <ele>15</ele>
        <time>2021-04-12T15:35:01+02:00</time>
      </trkpt>
      <trkpt lat="49.0968" lon="-0.39163">
        <ele>14</ele>
        <time>2021-04-12T15:35:20+02:00</time>
      </trkpt>
      <trkpt lat="49.09705" lon="-0.39157">
        <ele>13</ele>
        <time>2021-04-12T15:35:41+02:00</time>
      </trkpt>
      <trkpt lat="49.09724" lon="-0.39135">
        <ele>14</ele>
        <time>2021-04-12T15:40:24+02:00</time>
      </trkpt>
      <trkpt lat="49.09741" lon="-0.39112">
        <ele>15</ele>
        <time>2021-04-12T15:40:45+02:00</time>
      </trkpt>
      <trkpt lat="49.09759" lon="-0.39084">
        <ele>16</ele>
        <time>2021-04-12T15:41:07+02:00</time>
      </trkpt>
      <trkpt lat="49.09771" lon="-0.39057">
        <ele>8</ele>
        <time>2021-04-12T15:41:43+02:00</time>
      </trkpt>
      <trkpt lat="49.09787" lon="-0.39028">
        <ele>19</ele>
        <time>2021-04-12T15:42:22+02:00</time>
      </trkpt>
      <trkpt lat="49.09805" lon="-0.39008">
        <ele>19</ele>
        <time>2021-04-12T15:42:48+02:00</time>
      </trkpt>
      <trkpt lat="49.0982" lon="-0.38985">
        <ele>7</ele>
        <time>2021-04-12T15:43:27+02:00</time>
      </trkpt>
      <trkpt lat="49.09837" lon="-0.38961">
        <ele>7</ele>
        <time>2021-04-12T15:43:57+02:00</time>
      </trkpt>
      <trkpt lat="49.0985" lon="-0.38933">
        <ele>7</ele>
        <time>2021-04-12T15:44:22+02:00</time>
      </trkpt>
      <trkpt lat="49.09864" lon="-0.38903">
        <ele>23</ele>
        <time>2021-04-12T15:44:54+02:00</time>
      </trkpt>
      <trkpt lat="49.09882" lon="-0.38882">
        <ele>9</ele>
        <time>2021-04-12T15:45:34+02:00</time>
      </trkpt>
      <trkpt lat="49.09901" lon="-0.38863">
        <ele>9</ele>
        <time>2021-04-12T15:46:04+02:00</time>
      </trkpt>
      <trkpt lat="49.0992" lon="-0.38841">
        <ele>8</ele>
        <time>2021-04-12T15:46:36+02:00</time>
      </trkpt>
      <trkpt lat="49.0994" lon="-0.38824">
        <ele>7</ele>
        <time>2021-04-12T15:47:02+02:00</time>
      </trkpt>
      <trkpt lat="49.09957" lon="-0.38802">
        <ele>7</ele>
        <time>2021-04-12T15:47:26+02:00</time>
      </trkpt>
      <trkpt lat="49.09973" lon="-0.38776">
        <ele>7</ele>
        <time>2021-04-12T15:47:45+02:00</time>
      </trkpt>
      <trkpt lat="49.09993" lon="-0.38758">
        <ele>8</ele>
        <time>2021-04-12T15:48:08+02:00</time>
      </trkpt>
      <trkpt lat="49.10011" lon="-0.38732">
        <ele>18</ele>
        <time>2021-04-12T15:48:33+02:00</time>
      </trkpt>
      <trkpt lat="49.10024" lon="-0.38706">
        <ele>9</ele>
        <time>2021-04-12T15:48:52+02:00</time>
      </trkpt>
      <trkpt lat="49.10043" lon="-0.38688">
        <ele>9</ele>
        <time>2021-04-12T15:49:23+02:00</time>
      </trkpt>
      <trkpt lat="49.10063" lon="-0.38665">
        <ele>17</ele>
        <time>2021-04-12T15:49:48+02:00</time>
      </trkpt>
      <trkpt lat="49.10076" lon="-0.38642">
        <ele>10</ele>
        <time>2021-04-12T15:50:14+02:00</time>
      </trkpt>
      <trkpt lat="49.10093" lon="-0.38622">
        <ele>19</ele>
        <time>2021-04-12T15:50:35+02:00</time>
      </trkpt>
      <trkpt lat="49.10115" lon="-0.38603">
        <ele>19</ele>
        <time>2021-04-12T15:50:56+02:00</time>
      </trkpt>
      <trkpt lat="49.10132" lon="-0.38584">
        <ele>19</ele>
        <time>2021-04-12T15:51:14+02:00</time>
      </trkpt>
      <trkpt lat="49.10149" lon="-0.38562">
        <ele>20</ele>
        <time>2021-04-12T15:51:43+02:00</time>
      </trkpt>
      <trkpt lat="49.10166" lon="-0.38539">
        <ele>20</ele>
        <time>2021-04-12T15:52:03+02:00</time>
      </trkpt>
      <trkpt lat="49.10182" lon="-0.38513">
        <ele>11</ele>
        <time>2021-04-12T15:52:24+02:00</time>
      </trkpt>
      <trkpt lat="49.10197" lon="-0.38486">
        <ele>12</ele>
        <time>2021-04-12T15:53:08+02:00</time>
      </trkpt>
      <trkpt lat="49.10211" lon="-0.3846">
        <ele>24</ele>
        <time>2021-04-12T15:53:24+02:00</time>
      </trkpt>
      <trkpt lat="49.10227" lon="-0.38432">
        <ele>24</ele>
        <time>2021-04-12T15:53:43+02:00</time>
      </trkpt>
      <trkpt lat="49.10244" lon="-0.38407">
        <ele>23</ele>
        <time>2021-04-12T15:54:02+02:00</time>
      </trkpt>
      <trkpt lat="49.10258" lon="-0.38383">
        <ele>10</ele>
        <time>2021-04-12T15:54:21+02:00</time>
      </trkpt>
      <trkpt lat="49.10273" lon="-0.38364">
        <ele>25</ele>
        <time>2021-04-12T15:54:42+02:00</time>
      </trkpt>
      <trkpt lat="49.10257" lon="-0.38334">
        <ele>28</ele>
        <time>2021-04-12T15:55:10+02:00</time>
      </trkpt>
      <trkpt lat="49.10244" lon="-0.38309">
        <ele>32</ele>
        <time>2021-04-12T15:55:34+02:00</time>
      </trkpt>
      <trkpt lat="49.10227" lon="-0.38284">
        <ele>35</ele>
        <time>2021-04-12T15:55:55+02:00</time>
      </trkpt>
      <trkpt lat="49.10211" lon="-0.38258">
        <ele>19</ele>
        <time>2021-04-12T15:56:14+02:00</time>
      </trkpt>
      <trkpt lat="49.10196" lon="-0.38232">
        <ele>37</ele>
        <time>2021-04-12T15:56:39+02:00</time>
      </trkpt>
      <trkpt lat="49.10181" lon="-0.38204">
        <ele>37</ele>
        <time>2021-04-12T15:57:00+02:00</time>
      </trkpt>
      <trkpt lat="49.10168" lon="-0.38177">
        <ele>36</ele>
        <time>2021-04-12T15:57:19+02:00</time>
      </trkpt>
      <trkpt lat="49.10156" lon="-0.38146">
        <ele>38</ele>
        <time>2021-04-12T15:57:43+02:00</time>
      </trkpt>
      <trkpt lat="49.10143" lon="-0.38116">
        <ele>40</ele>
        <time>2021-04-12T15:58:03+02:00</time>
      </trkpt>
      <trkpt lat="49.10135" lon="-0.38082">
        <ele>41</ele>
        <time>2021-04-12T15:58:30+02:00</time>
      </trkpt>
      <trkpt lat="49.1013" lon="-0.38046">
        <ele>43</ele>
        <time>2021-04-12T15:58:53+02:00</time>
      </trkpt>
      <trkpt lat="49.10125" lon="-0.38014">
        <ele>45</ele>
        <time>2021-04-12T15:59:12+02:00</time>
      </trkpt>
      <trkpt lat="49.10117" lon="-0.37985">
        <ele>46</ele>
        <time>2021-04-12T15:59:32+02:00</time>
      </trkpt>
      <trkpt lat="49.10111" lon="-0.37972">
        <ele>46</ele>
        <time>2021-04-30T16:39:41+02:00</time>
      </trkpt>
      <trkpt lat="49.10095" lon="-0.37969">
        <ele>40</ele>
        <time>2021-04-12T15:59:59+02:00</time>
      </trkpt>
      <trkpt lat="49.10084" lon="-0.37966">
        <ele>44</ele>
        <time>2021-04-30T16:39:51+02:00</time>
      </trkpt>
      <trkpt lat="49.10072" lon="-0.37958">
        <ele>45</ele>
        <time>2021-04-12T16:00:31+02:00</time>
      </trkpt>
      <trkpt lat="49.10061" lon="-0.37948">
        <ele>47</ele>
        <time>2021-04-30T16:40:01+02:00</time>
      </trkpt>
      <trkpt lat="49.10054" lon="-0.37937">
        <ele>50</ele>
        <time>2021-04-12T16:01:23+02:00</time>
      </trkpt>
      <trkpt lat="49.10046" lon="-0.37904">
        <ele>47</ele>
        <time>2021-04-12T16:02:17+02:00</time>
      </trkpt>
      <trkpt lat="49.10037" lon="-0.37873">
        <ele>50</ele>
        <time>2021-04-12T16:02:57+02:00</time>
      </trkpt>
      <trkpt lat="49.10025" lon="-0.37847">
        <ele>51</ele>
        <time>2021-04-12T16:03:16+02:00</time>
      </trkpt>
      <trkpt lat="49.10014" lon="-0.37813">
        <ele>52</ele>
        <time>2021-04-12T16:03:38+02:00</time>
      </trkpt>
      <trkpt lat="49.10004" lon="-0.37778">
        <ele>53</ele>
        <time>2021-04-12T16:04:07+02:00</time>
      </trkpt>
      <trkpt lat="49.09994" lon="-0.37744">
        <ele>53</ele>
        <time>2021-04-12T16:04:29+02:00</time>
      </trkpt>
      <trkpt lat="49.09992" lon="-0.37734">
        <ele>53</ele>
        <time>2021-04-30T16:40:41+02:00</time>
      </trkpt>
      <trkpt lat="49.09997" lon="-0.37731">
        <ele>53</ele>
        <time>2021-04-30T16:40:46+02:00</time>
      </trkpt>
      <trkpt lat="49.10015" lon="-0.37717">
        <ele>50</ele>
        <time>2021-04-12T16:04:52+02:00</time>
      </trkpt>
      <trkpt lat="49.10034" lon="-0.37697">
        <ele>50</ele>
        <time>2021-04-12T16:05:14+02:00</time>
      </trkpt>
      <trkpt lat="49.10053" lon="-0.37677">
        <ele>51</ele>
        <time>2021-04-12T16:05:34+02:00</time>
      </trkpt>
      <trkpt lat="49.10073" lon="-0.3765">
        <ele>56</ele>
        <time>2021-04-12T16:05:57+02:00</time>
      </trkpt>
      <trkpt lat="49.1008" lon="-0.37637">
        <ele>56</ele>
        <time>2021-04-30T16:41:11+02:00</time>
      </trkpt>
      <trkpt lat="49.10084" lon="-0.37624">
        <ele>57</ele>
        <time>2021-04-12T16:06:15+02:00</time>
      </trkpt>
      <trkpt lat="49.10098" lon="-0.37592">
        <ele>58</ele>
        <time>2021-04-12T16:06:32+02:00</time>
      </trkpt>
      <trkpt lat="49.10109" lon="-0.37565">
        <ele>58</ele>
        <time>2021-04-12T16:06:52+02:00</time>
      </trkpt>
      <trkpt lat="49.10121" lon="-0.37535">
        <ele>58</ele>
        <time>2021-04-12T16:07:12+02:00</time>
      </trkpt>
      <trkpt lat="49.10131" lon="-0.37512">
        <ele>58</ele>
        <time>2021-04-12T16:07:35+02:00</time>
      </trkpt>
      <trkpt lat="49.10139" lon="-0.37493">
        <ele>58</ele>
        <time>2021-04-30T16:41:41+02:00</time>
      </trkpt>
      <trkpt lat="49.10134" lon="-0.37479">
        <ele>58</ele>
        <time>2021-04-12T16:08:43+02:00</time>
      </trkpt>
      <trkpt lat="49.10129" lon="-0.37464">
        <ele>58</ele>
        <time>2021-04-30T16:41:51+02:00</time>
      </trkpt>
      <trkpt lat="49.10124" lon="-0.37447">
        <ele>58</ele>
        <time>2021-04-12T16:09:01+02:00</time>
      </trkpt>
      <trkpt lat="49.10121" lon="-0.3742">
        <ele>59</ele>
        <time>2021-04-30T16:42:01+02:00</time>
      </trkpt>
      <trkpt lat="49.10121" lon="-0.37399">
        <ele>59</ele>
        <time>2021-04-12T16:09:39+02:00</time>
      </trkpt>
      <trkpt lat="49.10123" lon="-0.37385">
        <ele>59</ele>
        <time>2021-04-12T16:10:16+02:00</time>
      </trkpt>
      <trkpt lat="49.10115" lon="-0.37354">
        <ele>59</ele>
        <time>2021-04-12T16:10:35+02:00</time>
      </trkpt>
      <trkpt lat="49.10105" lon="-0.37321">
        <ele>59</ele>
        <time>2021-04-12T16:10:54+02:00</time>
      </trkpt>
      <trkpt lat="49.10099" lon="-0.37296">
        <ele>59</ele>
        <time>2021-04-30T16:42:26+02:00</time>
      </trkpt>
      <trkpt lat="49.10091" lon="-0.37296">
        <ele>59</ele>
        <time>2021-04-12T16:11:18+02:00</time>
      </trkpt>
      <trkpt lat="49.10084" lon="-0.37272">
        <ele>60</ele>
        <time>2021-04-30T16:42:36+02:00</time>
      </trkpt>
      <trkpt lat="49.10076" lon="-0.37242">
        <ele>60</ele>
        <time>2021-04-12T16:11:40+02:00</time>
      </trkpt>
    </trkseg>
  </trk>
</gpx>